sensor_id;sensor_type;location;lat;lon;timestamp;P1;durP1;ratioP1;P2;durP2;ratioP2
10007;SDS011;5043;41.766;26.204;2022-11-20T00:01:07;13.48;;;4.15;;
10007;SDS011;5043;41.766;26.204;2022-11-20T00:03:35;11.32;;;4.15;;
10007;SDS011;5043;41.766;26.204;2022-11-20T00:06:04;19.20;;;4.90;;
10007;SDS011;5043;41.766;26.204;2022-11-20T00:08:32;14.32;;;4.03;;
10007;SDS011;5043;41.766;26.204;2022-11-20T00:11:02;17.63;;;5.50;;
10007;SDS011;5043;41.766;26.204;2022-11-20T00:13:31;16.20;;;4.68;;
10007;SDS011;5043;41.766;26.204;2022-11-20T00:15:58;19.02;;;4.75;;
10007;SDS011;5043;41.766;26.204;2022-11-20T00:18:26;19.13;;;4.75;;
10007;SDS011;5043;41.766;26.204;2022-11-20T00:20:51;12.50;;;4.70;;
10007;SDS011;5043;41.766;26.204;2022-11-20T00:23:17;11.18;;;4.35;;
10007;SDS011;5043;41.766;26.204;2022-11-20T00:25:43;10.85;;;3.80;;
10007;SDS011;5043;41.766;26.204;2022-11-20T00:28:08;15.80;;;4.38;;
10007;SDS011;5043;41.766;26.204;2022-11-20T00:30:33;12.15;;;4.30;;
10007;SDS011;5043;41.766;26.204;2022-11-20T00:32:59;15.93;;;4.07;;
10007;SDS011;5043;41.766;26.204;2022-11-20T00:35:24;13.68;;;4.38;;
10007;SDS011;5043;41.766;26.204;2022-11-20T00:37:50;15.80;;;4.95;;
10007;SDS011;5043;41.766;26.204;2022-11-20T00:40:15;17.35;;;5.00;;
10007;SDS011;5043;41.766;26.204;2022-11-20T00:42:40;14.68;;;5.30;;
10007;SDS011;5043;41.766;26.204;2022-11-20T00:45:06;15.65;;;4.32;;
10007;SDS011;5043;41.766;26.204;2022-11-20T00:47:32;16.77;;;4.50;;
10007;SDS011;5043;41.766;26.204;2022-11-20T00:49:57;15.00;;;4.50;;
10007;SDS011;5043;41.766;26.204;2022-11-20T00:52:22;16.17;;;4.10;;
10007;SDS011;5043;41.766;26.204;2022-11-20T00:54:48;17.67;;;5.55;;
10007;SDS011;5043;41.766;26.204;2022-11-20T00:57:13;15.23;;;4.57;;
10007;SDS011;5043;41.766;26.204;2022-11-20T00:59:39;12.45;;;4.03;;
10007;SDS011;5043;41.766;26.204;2022-11-20T01:02:04;20.70;;;5.28;;
10007;SDS011;5043;41.766;26.204;2022-11-20T01:04:30;11.85;;;4.20;;
10007;SDS011;5043;41.766;26.204;2022-11-20T01:06:55;17.50;;;4.80;;
10007;SDS011;5043;41.766;26.204;2022-11-20T01:09:20;13.00;;;4.45;;
10007;SDS011;5043;41.766;26.204;2022-11-20T01:11:46;9.48;;;3.53;;
10007;SDS011;5043;41.766;26.204;2022-11-20T01:14:13;13.32;;;4.03;;
10007;SDS011;5043;41.766;26.204;2022-11-20T01:16:40;12.95;;;4.38;;
10007;SDS011;5043;41.766;26.204;2022-11-20T01:19:12;13.95;;;4.20;;
10007;SDS011;5043;41.766;26.204;2022-11-20T01:21:40;11.43;;;3.67;;
10007;SDS011;5043;41.766;26.204;2022-11-20T01:24:07;13.95;;;5.03;;
10007;SDS011;5043;41.766;26.204;2022-11-20T01:26:37;12.50;;;4.07;;
10007;SDS011;5043;41.766;26.204;2022-11-20T01:29:05;17.38;;;5.38;;
10007;SDS011;5043;41.766;26.204;2022-11-20T01:31:35;11.95;;;4.35;;
10007;SDS011;5043;41.766;26.204;2022-11-20T01:34:03;15.45;;;3.65;;
10007;SDS011;5043;41.766;26.204;2022-11-20T01:36:30;13.50;;;4.45;;
10007;SDS011;5043;41.766;26.204;2022-11-20T01:38:58;13.27;;;4.15;;
10007;SDS011;5043;41.766;26.204;2022-11-20T01:41:25;13.88;;;4.05;;
10007;SDS011;5043;41.766;26.204;2022-11-20T01:44:12;14.07;;;4.38;;
10007;SDS011;5043;41.766;26.204;2022-11-20T01:46:59;11.82;;;3.40;;
10007;SDS011;5043;41.766;26.204;2022-11-20T01:49:33;10.63;;;3.72;;
10007;SDS011;5043;41.766;26.204;2022-11-20T01:52:07;14.32;;;4.57;;
10007;SDS011;5043;41.766;26.204;2022-11-20T01:54:42;14.27;;;4.07;;
10007;SDS011;5043;41.766;26.204;2022-11-20T01:57:12;15.50;;;3.58;;
10007;SDS011;5043;41.766;26.204;2022-11-20T01:59:41;17.08;;;4.18;;
10007;SDS011;5043;41.766;26.204;2022-11-20T02:02:12;19.73;;;5.22;;
10007;SDS011;5043;41.766;26.204;2022-11-20T02:04:38;15.23;;;4.53;;
10007;SDS011;5043;41.766;26.204;2022-11-20T02:07:03;21.30;;;4.63;;
10007;SDS011;5043;41.766;26.204;2022-11-20T02:09:30;16.27;;;4.22;;
10007;SDS011;5043;41.766;26.204;2022-11-20T02:11:56;11.25;;;3.55;;
10007;SDS011;5043;41.766;26.204;2022-11-20T02:14:23;12.98;;;4.32;;
10007;SDS011;5043;41.766;26.204;2022-11-20T02:16:50;9.07;;;3.78;;
10007;SDS011;5043;41.766;26.204;2022-11-20T02:19:21;16.27;;;3.22;;
10007;SDS011;5043;41.766;26.204;2022-11-20T02:21:59;13.43;;;3.97;;
10007;SDS011;5043;41.766;26.204;2022-11-20T02:24:30;20.02;;;4.10;;
10007;SDS011;5043;41.766;26.204;2022-11-20T02:27:17;15.55;;;4.22;;
10007;SDS011;5043;41.766;26.204;2022-11-20T02:30:00;15.48;;;4.85;;
10007;SDS011;5043;41.766;26.204;2022-11-20T02:32:29;12.18;;;3.88;;
10007;SDS011;5043;41.766;26.204;2022-11-20T02:34:56;20.98;;;4.72;;
10007;SDS011;5043;41.766;26.204;2022-11-20T02:37:22;12.38;;;4.05;;
10007;SDS011;5043;41.766;26.204;2022-11-20T02:39:51;13.02;;;4.25;;
10007;SDS011;5043;41.766;26.204;2022-11-20T02:42:17;13.90;;;3.80;;
10007;SDS011;5043;41.766;26.204;2022-11-20T02:44:43;11.45;;;3.35;;
10007;SDS011;5043;41.766;26.204;2022-11-20T02:47:09;14.70;;;4.22;;
10007;SDS011;5043;41.766;26.204;2022-11-20T02:49:34;12.55;;;3.95;;
10007;SDS011;5043;41.766;26.204;2022-11-20T02:52:00;11.05;;;3.13;;
10007;SDS011;5043;41.766;26.204;2022-11-20T02:54:26;12.95;;;4.03;;
10007;SDS011;5043;41.766;26.204;2022-11-20T02:56:51;14.27;;;3.95;;
10007;SDS011;5043;41.766;26.204;2022-11-20T02:59:17;11.65;;;3.67;;
10007;SDS011;5043;41.766;26.204;2022-11-20T03:01:42;14.45;;;5.43;;
10007;SDS011;5043;41.766;26.204;2022-11-20T03:04:08;13.90;;;3.55;;
10007;SDS011;5043;41.766;26.204;2022-11-20T03:06:33;16.35;;;3.70;;
10007;SDS011;5043;41.766;26.204;2022-11-20T03:08:59;12.75;;;2.92;;
10007;SDS011;5043;41.766;26.204;2022-11-20T03:11:24;15.70;;;4.30;;
10007;SDS011;5043;41.766;26.204;2022-11-20T03:13:50;13.18;;;4.03;;
10007;SDS011;5043;41.766;26.204;2022-11-20T03:16:16;16.80;;;3.85;;
10007;SDS011;5043;41.766;26.204;2022-11-20T03:18:44;15.18;;;4.45;;
10007;SDS011;5043;41.766;26.204;2022-11-20T03:21:11;18.70;;;4.78;;
10007;SDS011;5043;41.766;26.204;2022-11-20T03:23:38;10.85;;;3.33;;
10007;SDS011;5043;41.766;26.204;2022-11-20T03:26:14;13.80;;;3.80;;
10007;SDS011;5043;41.766;26.204;2022-11-20T03:28:42;18.50;;;4.03;;
10007;SDS011;5043;41.766;26.204;2022-11-20T03:31:12;18.42;;;5.00;;
10007;SDS011;5043;41.766;26.204;2022-11-20T03:33:40;15.55;;;4.07;;
10007;SDS011;5043;41.766;26.204;2022-11-20T03:36:10;15.43;;;3.65;;
10007;SDS011;5043;41.766;26.204;2022-11-20T03:38:38;12.90;;;3.70;;
10007;SDS011;5043;41.766;26.204;2022-11-20T03:41:05;13.07;;;4.40;;
10007;SDS011;5043;41.766;26.204;2022-11-20T03:43:33;9.63;;;3.83;;
10007;SDS011;5043;41.766;26.204;2022-11-20T03:45:59;14.02;;;3.90;;
10007;SDS011;5043;41.766;26.204;2022-11-20T03:48:24;10.98;;;3.63;;
10007;SDS011;5043;41.766;26.204;2022-11-20T03:50:50;20.35;;;4.35;;
10007;SDS011;5043;41.766;26.204;2022-11-20T03:53:16;12.05;;;3.80;;
10007;SDS011;5043;41.766;26.204;2022-11-20T03:55:42;11.18;;;4.60;;
10007;SDS011;5043;41.766;26.204;2022-11-20T03:58:08;11.30;;;4.60;;
10007;SDS011;5043;41.766;26.204;2022-11-20T04:00:34;13.27;;;3.75;;
10007;SDS011;5043;41.766;26.204;2022-11-20T04:03:00;17.20;;;4.95;;
10007;SDS011;5043;41.766;26.204;2022-11-20T04:05:27;23.60;;;4.93;;
10007;SDS011;5043;41.766;26.204;2022-11-20T04:07:52;14.73;;;4.18;;
10007;SDS011;5043;41.766;26.204;2022-11-20T04:10:18;18.60;;;4.03;;
10007;SDS011;5043;41.766;26.204;2022-11-20T04:12:43;19.23;;;4.13;;
10007;SDS011;5043;41.766;26.204;2022-11-20T04:15:09;15.75;;;3.63;;
10007;SDS011;5043;41.766;26.204;2022-11-20T04:17:34;15.82;;;5.00;;
10007;SDS011;5043;41.766;26.204;2022-11-20T04:20:00;13.48;;;4.25;;
10007;SDS011;5043;41.766;26.204;2022-11-20T04:22:26;20.02;;;5.13;;
10007;SDS011;5043;41.766;26.204;2022-11-20T04:24:51;15.23;;;4.38;;
10007;SDS011;5043;41.766;26.204;2022-11-20T04:27:17;17.55;;;4.07;;
10007;SDS011;5043;41.766;26.204;2022-11-20T04:29:42;12.32;;;4.22;;
10007;SDS011;5043;41.766;26.204;2022-11-20T04:32:08;13.63;;;4.35;;
10007;SDS011;5043;41.766;26.204;2022-11-20T04:34:33;17.10;;;4.18;;
10007;SDS011;5043;41.766;26.204;2022-11-20T04:36:59;19.05;;;5.13;;
10007;SDS011;5043;41.766;26.204;2022-11-20T04:39:25;16.35;;;4.20;;
10007;SDS011;5043;41.766;26.204;2022-11-20T04:41:50;19.02;;;4.90;;
10007;SDS011;5043;41.766;26.204;2022-11-20T04:44:38;16.45;;;4.45;;
10007;SDS011;5043;41.766;26.204;2022-11-20T04:47:03;21.85;;;4.45;;
10007;SDS011;5043;41.766;26.204;2022-11-20T04:49:29;15.63;;;4.40;;
10007;SDS011;5043;41.766;26.204;2022-11-20T04:51:56;14.65;;;4.43;;
10007;SDS011;5043;41.766;26.204;2022-11-20T04:54:22;12.43;;;5.00;;
10007;SDS011;5043;41.766;26.204;2022-11-20T04:56:47;17.45;;;4.55;;
10007;SDS011;5043;41.766;26.204;2022-11-20T04:59:13;20.85;;;4.68;;
10007;SDS011;5043;41.766;26.204;2022-11-20T05:01:39;10.85;;;4.15;;
10007;SDS011;5043;41.766;26.204;2022-11-20T05:04:04;17.25;;;4.68;;
10007;SDS011;5043;41.766;26.204;2022-11-20T05:06:30;16.33;;;3.78;;
10007;SDS011;5043;41.766;26.204;2022-11-20T05:08:57;19.77;;;4.85;;
10007;SDS011;5043;41.766;26.204;2022-11-20T05:11:23;20.17;;;4.35;;
10007;SDS011;5043;41.766;26.204;2022-11-20T05:13:49;13.00;;;4.07;;
10007;SDS011;5043;41.766;26.204;2022-11-20T05:16:17;16.95;;;4.63;;
10007;SDS011;5043;41.766;26.204;2022-11-20T05:18:44;19.15;;;3.92;;
10007;SDS011;5043;41.766;26.204;2022-11-20T05:21:10;20.52;;;4.55;;
10007;SDS011;5043;41.766;26.204;2022-11-20T05:23:37;19.17;;;3.55;;
10007;SDS011;5043;41.766;26.204;2022-11-20T05:26:03;21.60;;;4.45;;
10007;SDS011;5043;41.766;26.204;2022-11-20T05:28:30;18.13;;;4.85;;
10007;SDS011;5043;41.766;26.204;2022-11-20T05:31:03;19.83;;;4.72;;
10007;SDS011;5043;41.766;26.204;2022-11-20T05:33:29;26.73;;;5.57;;
10007;SDS011;5043;41.766;26.204;2022-11-20T05:35:57;19.05;;;5.05;;
10007;SDS011;5043;41.766;26.204;2022-11-20T05:38:23;19.27;;;4.85;;
10007;SDS011;5043;41.766;26.204;2022-11-20T05:40:49;16.17;;;4.50;;
10007;SDS011;5043;41.766;26.204;2022-11-20T05:43:14;16.08;;;4.38;;
10007;SDS011;5043;41.766;26.204;2022-11-20T05:45:40;19.27;;;4.65;;
10007;SDS011;5043;41.766;26.204;2022-11-20T05:48:05;15.18;;;4.38;;
10007;SDS011;5043;41.766;26.204;2022-11-20T05:50:30;14.85;;;4.47;;
10007;SDS011;5043;41.766;26.204;2022-11-20T05:52:59;15.75;;;5.05;;
10007;SDS011;5043;41.766;26.204;2022-11-20T05:55:25;18.02;;;5.03;;
10007;SDS011;5043;41.766;26.204;2022-11-20T05:57:54;13.50;;;4.53;;
10007;SDS011;5043;41.766;26.204;2022-11-20T06:00:20;20.83;;;5.43;;
10007;SDS011;5043;41.766;26.204;2022-11-20T06:02:46;24.08;;;6.55;;
10007;SDS011;5043;41.766;26.204;2022-11-20T06:05:11;17.20;;;4.05;;
10007;SDS011;5043;41.766;26.204;2022-11-20T06:07:36;17.85;;;4.93;;
10007;SDS011;5043;41.766;26.204;2022-11-20T06:10:02;20.95;;;4.75;;
10007;SDS011;5043;41.766;26.204;2022-11-20T06:12:30;15.77;;;4.45;;
10007;SDS011;5043;41.766;26.204;2022-11-20T06:14:57;19.23;;;4.53;;
10007;SDS011;5043;41.766;26.204;2022-11-20T06:17:22;18.20;;;4.35;;
10007;SDS011;5043;41.766;26.204;2022-11-20T06:19:47;20.02;;;4.80;;
10007;SDS011;5043;41.766;26.204;2022-11-20T06:22:13;15.00;;;5.07;;
10007;SDS011;5043;41.766;26.204;2022-11-20T06:24:38;22.20;;;5.43;;
10007;SDS011;5043;41.766;26.204;2022-11-20T06:27:04;15.38;;;4.50;;
10007;SDS011;5043;41.766;26.204;2022-11-20T06:29:29;19.50;;;4.32;;
10007;SDS011;5043;41.766;26.204;2022-11-20T06:31:54;26.30;;;5.60;;
10007;SDS011;5043;41.766;26.204;2022-11-20T06:34:20;19.42;;;5.25;;
10007;SDS011;5043;41.766;26.204;2022-11-20T06:36:45;17.98;;;4.95;;
10007;SDS011;5043;41.766;26.204;2022-11-20T06:39:10;15.88;;;4.38;;
10007;SDS011;5043;41.766;26.204;2022-11-20T06:41:36;18.42;;;4.97;;
10007;SDS011;5043;41.766;26.204;2022-11-20T06:44:03;29.30;;;6.03;;
10007;SDS011;5043;41.766;26.204;2022-11-20T06:46:30;12.05;;;4.22;;
10007;SDS011;5043;41.766;26.204;2022-11-20T06:48:56;19.00;;;5.43;;
10007;SDS011;5043;41.766;26.204;2022-11-20T06:51:21;20.50;;;4.40;;
10007;SDS011;5043;41.766;26.204;2022-11-20T06:53:47;13.30;;;4.30;;
10007;SDS011;5043;41.766;26.204;2022-11-20T06:56:13;18.20;;;5.05;;
10007;SDS011;5043;41.766;26.204;2022-11-20T06:58:39;21.60;;;4.97;;
10007;SDS011;5043;41.766;26.204;2022-11-20T07:01:05;19.05;;;5.93;;
10007;SDS011;5043;41.766;26.204;2022-11-20T07:03:35;16.38;;;4.43;;
10007;SDS011;5043;41.766;26.204;2022-11-20T07:06:02;14.38;;;5.60;;
10007;SDS011;5043;41.766;26.204;2022-11-20T07:08:29;19.35;;;5.32;;
10007;SDS011;5043;41.766;26.204;2022-11-20T07:10:58;17.63;;;4.65;;
10007;SDS011;5043;41.766;26.204;2022-11-20T07:13:28;15.18;;;4.53;;
10007;SDS011;5043;41.766;26.204;2022-11-20T07:15:54;13.80;;;4.35;;
10007;SDS011;5043;41.766;26.204;2022-11-20T07:18:23;17.35;;;4.70;;
10007;SDS011;5043;41.766;26.204;2022-11-20T07:20:49;26.17;;;5.63;;
10007;SDS011;5043;41.766;26.204;2022-11-20T07:23:14;11.05;;;4.78;;
10007;SDS011;5043;41.766;26.204;2022-11-20T07:25:40;18.10;;;6.95;;
10007;SDS011;5043;41.766;26.204;2022-11-20T07:28:05;19.33;;;5.15;;
10007;SDS011;5043;41.766;26.204;2022-11-20T07:30:31;22.20;;;6.45;;
10007;SDS011;5043;41.766;26.204;2022-11-20T07:32:56;26.58;;;10.00;;
10007;SDS011;5043;41.766;26.204;2022-11-20T07:35:22;23.27;;;8.07;;
10007;SDS011;5043;41.766;26.204;2022-11-20T07:37:49;21.63;;;5.25;;
10007;SDS011;5043;41.766;26.204;2022-11-20T07:40:15;16.20;;;4.95;;
10007;SDS011;5043;41.766;26.204;2022-11-20T07:42:50;18.38;;;5.07;;
10007;SDS011;5043;41.766;26.204;2022-11-20T07:45:17;26.90;;;4.72;;
10007;SDS011;5043;41.766;26.204;2022-11-20T07:47:46;19.48;;;5.20;;
10007;SDS011;5043;41.766;26.204;2022-11-20T07:50:11;18.45;;;5.03;;
10007;SDS011;5043;41.766;26.204;2022-11-20T07:52:38;14.07;;;4.97;;
10007;SDS011;5043;41.766;26.204;2022-11-20T07:55:03;24.52;;;5.60;;
10007;SDS011;5043;41.766;26.204;2022-11-20T07:57:30;22.05;;;5.13;;
10007;SDS011;5043;41.766;26.204;2022-11-20T07:59:55;16.15;;;5.53;;
10007;SDS011;5043;41.766;26.204;2022-11-20T08:02:21;26.55;;;6.32;;
10007;SDS011;5043;41.766;26.204;2022-11-20T08:04:46;26.15;;;7.47;;
10007;SDS011;5043;41.766;26.204;2022-11-20T08:07:12;20.45;;;6.35;;
10007;SDS011;5043;41.766;26.204;2022-11-20T08:09:37;20.98;;;5.72;;
10007;SDS011;5043;41.766;26.204;2022-11-20T08:12:03;18.50;;;4.88;;
10007;SDS011;5043;41.766;26.204;2022-11-20T08:14:47;21.85;;;4.93;;
10007;SDS011;5043;41.766;26.204;2022-11-20T08:17:12;19.90;;;5.43;;
10007;SDS011;5043;41.766;26.204;2022-11-20T08:19:37;30.33;;;5.57;;
10007;SDS011;5043;41.766;26.204;2022-11-20T08:22:03;18.73;;;5.35;;
10007;SDS011;5043;41.766;26.204;2022-11-20T08:24:28;19.58;;;6.38;;
10007;SDS011;5043;41.766;26.204;2022-11-20T08:26:56;21.83;;;5.47;;
10007;SDS011;5043;41.766;26.204;2022-11-20T08:29:23;24.55;;;6.75;;
10007;SDS011;5043;41.766;26.204;2022-11-20T08:31:48;22.33;;;6.88;;
10007;SDS011;5043;41.766;26.204;2022-11-20T08:34:14;22.25;;;6.15;;
10007;SDS011;5043;41.766;26.204;2022-11-20T08:36:39;20.65;;;5.13;;
10007;SDS011;5043;41.766;26.204;2022-11-20T08:39:05;33.65;;;6.93;;
10007;SDS011;5043;41.766;26.204;2022-11-20T08:41:30;23.05;;;5.65;;
10007;SDS011;5043;41.766;26.204;2022-11-20T08:44:02;24.23;;;6.15;;
10007;SDS011;5043;41.766;26.204;2022-11-20T08:46:32;21.65;;;5.47;;
10007;SDS011;5043;41.766;26.204;2022-11-20T08:49:06;24.90;;;6.20;;
10007;SDS011;5043;41.766;26.204;2022-11-20T08:51:33;21.55;;;6.25;;
10007;SDS011;5043;41.766;26.204;2022-11-20T08:53:59;31.00;;;6.60;;
10007;SDS011;5043;41.766;26.204;2022-11-20T08:56:24;21.00;;;5.57;;
10007;SDS011;5043;41.766;26.204;2022-11-20T08:58:51;28.30;;;6.53;;
10007;SDS011;5043;41.766;26.204;2022-11-20T09:01:17;31.15;;;6.97;;
10007;SDS011;5043;41.766;26.204;2022-11-20T09:03:43;24.30;;;5.60;;
10007;SDS011;5043;41.766;26.204;2022-11-20T09:06:08;18.35;;;5.97;;
10007;SDS011;5043;41.766;26.204;2022-11-20T09:08:34;33.28;;;7.15;;
10007;SDS011;5043;41.766;26.204;2022-11-20T09:11:01;22.70;;;5.63;;
10007;SDS011;5043;41.766;26.204;2022-11-20T09:13:27;24.35;;;6.20;;
10007;SDS011;5043;41.766;26.204;2022-11-20T09:15:58;25.23;;;6.75;;
10007;SDS011;5043;41.766;26.204;2022-11-20T09:18:27;26.08;;;6.47;;
10007;SDS011;5043;41.766;26.204;2022-11-20T09:20:57;22.23;;;6.65;;
10007;SDS011;5043;41.766;26.204;2022-11-20T09:23:23;32.13;;;7.65;;
10007;SDS011;5043;41.766;26.204;2022-11-20T09:25:48;39.20;;;7.78;;
10007;SDS011;5043;41.766;26.204;2022-11-20T09:28:13;24.98;;;6.97;;
10007;SDS011;5043;41.766;26.204;2022-11-20T09:30:39;36.08;;;7.82;;
10007;SDS011;5043;41.766;26.204;2022-11-20T09:33:05;37.42;;;7.13;;
10007;SDS011;5043;41.766;26.204;2022-11-20T09:35:31;28.58;;;6.65;;
10007;SDS011;5043;41.766;26.204;2022-11-20T09:37:57;24.13;;;6.72;;
10007;SDS011;5043;41.766;26.204;2022-11-20T09:40:24;29.60;;;7.65;;
10007;SDS011;5043;41.766;26.204;2022-11-20T09:42:56;27.65;;;6.50;;
10007;SDS011;5043;41.766;26.204;2022-11-20T09:45:35;23.42;;;6.18;;
10007;SDS011;5043;41.766;26.204;2022-11-20T09:56:45;33.10;;;8.68;;
10007;SDS011;5043;41.766;26.204;2022-11-20T09:59:44;32.45;;;8.18;;
10007;SDS011;5043;41.766;26.204;2022-11-20T10:04:51;29.80;;;7.45;;
10007;SDS011;5043;41.766;26.204;2022-11-20T10:10:45;28.33;;;5.28;;
10007;SDS011;5043;41.766;26.204;2022-11-20T10:19:12;19.88;;;5.70;;
10007;SDS011;5043;41.766;26.204;2022-11-20T10:29:47;30.05;;;8.38;;
10007;SDS011;5043;41.766;26.204;2022-11-20T10:32:29;38.42;;;9.68;;
10007;SDS011;5043;41.766;26.204;2022-11-20T10:35:04;34.50;;;8.98;;
10007;SDS011;5043;41.766;26.204;2022-11-20T10:37:37;34.72;;;10.57;;
10007;SDS011;5043;41.766;26.204;2022-11-20T10:43:00;28.73;;;6.85;;
10007;SDS011;5043;41.766;26.204;2022-11-20T10:46:00;24.42;;;7.00;;
10007;SDS011;5043;41.766;26.204;2022-11-20T10:48:33;35.53;;;7.93;;
10007;SDS011;5043;41.766;26.204;2022-11-20T10:51:13;29.83;;;7.60;;
10007;SDS011;5043;41.766;26.204;2022-11-20T11:02:14;35.08;;;6.05;;
10007;SDS011;5043;41.766;26.204;2022-11-20T11:04:50;25.50;;;6.40;;
10007;SDS011;5043;41.766;26.204;2022-11-20T11:07:35;27.35;;;6.13;;
10007;SDS011;5043;41.766;26.204;2022-11-20T11:10:11;34.20;;;6.72;;
10007;SDS011;5043;41.766;26.204;2022-11-20T11:12:42;33.63;;;6.65;;
10007;SDS011;5043;41.766;26.204;2022-11-20T11:15:25;24.83;;;5.47;;
10007;SDS011;5043;41.766;26.204;2022-11-20T11:17:54;32.30;;;6.25;;
10007;SDS011;5043;41.766;26.204;2022-11-20T11:20:21;27.95;;;6.22;;
10007;SDS011;5043;41.766;26.204;2022-11-20T11:22:54;31.83;;;6.80;;
10007;SDS011;5043;41.766;26.204;2022-11-20T11:25:34;29.98;;;7.07;;
10007;SDS011;5043;41.766;26.204;2022-11-20T11:30:45;30.23;;;6.53;;
10007;SDS011;5043;41.766;26.204;2022-11-20T11:33:18;28.92;;;6.78;;
10007;SDS011;5043;41.766;26.204;2022-11-20T11:35:49;28.45;;;6.15;;
10007;SDS011;5043;41.766;26.204;2022-11-20T11:38:22;33.30;;;7.65;;
10007;SDS011;5043;41.766;26.204;2022-11-20T11:40:53;35.03;;;7.38;;
10007;SDS011;5043;41.766;26.204;2022-11-20T11:43:25;24.85;;;5.70;;
10007;SDS011;5043;41.766;26.204;2022-11-20T11:46:24;46.83;;;7.47;;
10007;SDS011;5043;41.766;26.204;2022-11-20T11:48:57;42.85;;;7.78;;
10007;SDS011;5043;41.766;26.204;2022-11-20T11:51:36;39.83;;;8.00;;
10007;SDS011;5043;41.766;26.204;2022-11-20T11:56:58;42.85;;;9.15;;
10007;SDS011;5043;41.766;26.204;2022-11-20T11:59:43;33.50;;;7.82;;
10007;SDS011;5043;41.766;26.204;2022-11-20T12:05:27;31.67;;;7.45;;
10007;SDS011;5043;41.766;26.204;2022-11-20T12:10:48;48.45;;;8.65;;
10007;SDS011;5043;41.766;26.204;2022-11-20T12:15:59;30.38;;;7.50;;
10007;SDS011;5043;41.766;26.204;2022-11-20T12:18:25;37.20;;;9.00;;
10007;SDS011;5043;41.766;26.204;2022-11-20T12:29:21;44.72;;;9.40;;
10007;SDS011;5043;41.766;26.204;2022-11-20T12:37:45;40.03;;;10.10;;
10007;SDS011;5043;41.766;26.204;2022-11-20T12:40:28;44.00;;;11.90;;
10007;SDS011;5043;41.766;26.204;2022-11-20T12:43:09;34.40;;;7.55;;
10007;SDS011;5043;41.766;26.204;2022-11-20T12:52:06;41.28;;;11.15;;
10007;SDS011;5043;41.766;26.204;2022-11-20T12:55:28;39.50;;;8.27;;
10007;SDS011;5043;41.766;26.204;2022-11-20T12:57:35;42.60;;;8.73;;
10007;SDS011;5043;41.766;26.204;2022-11-20T13:00:11;46.65;;;8.68;;
10007;SDS011;5043;41.766;26.204;2022-11-20T13:08:36;45.25;;;8.05;;
10007;SDS011;5043;41.766;26.204;2022-11-20T13:11:08;42.17;;;9.43;;
10007;SDS011;5043;41.766;26.204;2022-11-20T13:19:22;47.90;;;8.60;;
10007;SDS011;5043;41.766;26.204;2022-11-20T13:21:49;38.25;;;9.88;;
10007;SDS011;5043;41.766;26.204;2022-11-20T13:29:27;31.25;;;8.90;;
10007;SDS011;5043;41.766;26.204;2022-11-20T13:32:01;37.78;;;8.45;;
10007;SDS011;5043;41.766;26.204;2022-11-20T13:34:31;47.38;;;9.93;;
10007;SDS011;5043;41.766;26.204;2022-11-20T13:36:58;45.08;;;8.63;;
10007;SDS011;5043;41.766;26.204;2022-11-20T13:39:32;54.17;;;10.40;;
10007;SDS011;5043;41.766;26.204;2022-11-20T13:42:00;40.15;;;11.25;;
10007;SDS011;5043;41.766;26.204;2022-11-20T13:44:37;46.50;;;9.18;;
10007;SDS011;5043;41.766;26.204;2022-11-20T13:47:17;45.92;;;9.30;;
10007;SDS011;5043;41.766;26.204;2022-11-20T13:49:47;41.65;;;9.82;;
10007;SDS011;5043;41.766;26.204;2022-11-20T13:55:35;48.47;;;8.70;;
10007;SDS011;5043;41.766;26.204;2022-11-20T13:58:15;33.47;;;8.82;;
10007;SDS011;5043;41.766;26.204;2022-11-20T14:00:45;50.15;;;10.20;;
10007;SDS011;5043;41.766;26.204;2022-11-20T14:03:23;49.63;;;10.07;;
10007;SDS011;5043;41.766;26.204;2022-11-20T14:05:59;43.55;;;10.80;;
10007;SDS011;5043;41.766;26.204;2022-11-20T14:13:29;42.13;;;10.80;;
10007;SDS011;5043;41.766;26.204;2022-11-20T14:15:58;45.58;;;11.05;;
10007;SDS011;5043;41.766;26.204;2022-11-20T14:18:25;43.85;;;10.93;;
10007;SDS011;5043;41.766;26.204;2022-11-20T14:20:51;42.15;;;10.13;;
10007;SDS011;5043;41.766;26.204;2022-11-20T14:23:23;46.70;;;9.18;;
10007;SDS011;5043;41.766;26.204;2022-11-20T14:25:50;41.83;;;9.40;;
10007;SDS011;5043;41.766;26.204;2022-11-20T14:28:26;35.95;;;8.65;;
10007;SDS011;5043;41.766;26.204;2022-11-20T14:30:55;43.53;;;9.85;;
10007;SDS011;5043;41.766;26.204;2022-11-20T14:33:22;44.45;;;8.98;;
10007;SDS011;5043;41.766;26.204;2022-11-20T14:35:50;51.58;;;9.68;;
10007;SDS011;5043;41.766;26.204;2022-11-20T14:38:19;46.40;;;10.30;;
10007;SDS011;5043;41.766;26.204;2022-11-20T14:40:48;43.38;;;10.20;;
10007;SDS011;5043;41.766;26.204;2022-11-20T14:43:24;35.90;;;10.02;;
10007;SDS011;5043;41.766;26.204;2022-11-20T14:45:55;38.40;;;11.43;;
10007;SDS011;5043;41.766;26.204;2022-11-20T14:48:24;45.08;;;10.80;;
10007;SDS011;5043;41.766;26.204;2022-11-20T14:50:55;46.05;;;10.23;;
10007;SDS011;5043;41.766;26.204;2022-11-20T14:53:23;44.38;;;9.88;;
10007;SDS011;5043;41.766;26.204;2022-11-20T14:55:59;56.47;;;10.10;;
10007;SDS011;5043;41.766;26.204;2022-11-20T14:58:28;38.38;;;9.77;;
10007;SDS011;5043;41.766;26.204;2022-11-20T15:01:06;47.42;;;10.02;;
10007;SDS011;5043;41.766;26.204;2022-11-20T15:03:36;37.53;;;10.02;;
10007;SDS011;5043;41.766;26.204;2022-11-20T15:06:04;60.08;;;10.02;;
10007;SDS011;5043;41.766;26.204;2022-11-20T15:08:31;53.38;;;10.70;;
10007;SDS011;5043;41.766;26.204;2022-11-20T15:10:56;45.17;;;12.20;;
10007;SDS011;5043;41.766;26.204;2022-11-20T15:16:02;54.33;;;12.23;;
10007;SDS011;5043;41.766;26.204;2022-11-20T15:18:36;49.92;;;11.35;;
10007;SDS011;5043;41.766;26.204;2022-11-20T15:21:03;38.60;;;10.20;;
10007;SDS011;5043;41.766;26.204;2022-11-20T15:23:35;45.92;;;10.60;;
10007;SDS011;5043;41.766;26.204;2022-11-20T15:26:01;46.50;;;9.68;;
10007;SDS011;5043;41.766;26.204;2022-11-20T15:30:54;41.08;;;12.00;;
10007;SDS011;5043;41.766;26.204;2022-11-20T15:33:21;45.50;;;11.32;;
10007;SDS011;5043;41.766;26.204;2022-11-20T15:35:47;52.85;;;13.10;;
10007;SDS011;5043;41.766;26.204;2022-11-20T15:38:12;45.92;;;12.55;;
10007;SDS011;5043;41.766;26.204;2022-11-20T15:40:38;56.38;;;11.70;;
10007;SDS011;5043;41.766;26.204;2022-11-20T15:43:05;59.28;;;14.15;;
10007;SDS011;5043;41.766;26.204;2022-11-20T15:45:40;54.35;;;17.35;;
10007;SDS011;5043;41.766;26.204;2022-11-20T15:53:39;44.03;;;10.25;;
10007;SDS011;5043;41.766;26.204;2022-11-20T15:56:06;42.35;;;10.68;;
10007;SDS011;5043;41.766;26.204;2022-11-20T15:58:36;38.00;;;10.02;;
10007;SDS011;5043;41.766;26.204;2022-11-20T16:01:01;42.80;;;11.40;;
10007;SDS011;5043;41.766;26.204;2022-11-20T16:03:27;39.30;;;11.05;;
10007;SDS011;5043;41.766;26.204;2022-11-20T16:05:52;38.05;;;11.60;;
10007;SDS011;5043;41.766;26.204;2022-11-20T16:08:18;50.05;;;11.20;;
10007;SDS011;5043;41.766;26.204;2022-11-20T16:10:43;42.63;;;10.35;;
10007;SDS011;5043;41.766;26.204;2022-11-20T16:13:13;39.20;;;12.98;;
10007;SDS011;5043;41.766;26.204;2022-11-20T16:16:00;40.38;;;12.30;;
10007;SDS011;5043;41.766;26.204;2022-11-20T16:18:30;43.63;;;11.82;;
10007;SDS011;5043;41.766;26.204;2022-11-20T16:20:55;39.50;;;11.90;;
10007;SDS011;5043;41.766;26.204;2022-11-20T16:23:22;34.78;;;9.02;;
10007;SDS011;5043;41.766;26.204;2022-11-20T16:25:48;33.65;;;9.85;;
10007;SDS011;5043;41.766;26.204;2022-11-20T16:28:14;40.58;;;14.77;;
10007;SDS011;5043;41.766;26.204;2022-11-20T16:30:40;39.50;;;12.57;;
10007;SDS011;5043;41.766;26.204;2022-11-20T16:33:09;44.63;;;12.88;;